Time;durP1;ratioP1;P1;durP2;ratioP2;P2;SDS_P1;SDS_P2;PMS_P1;PMS_P2;Temp;Humidity;BMP_temperature;BMP_pressure;BME280_temperature;BME280_humidity;BME280_pressure;Samples;Min_cycle;Max_cycle;Signal;HPM_P1;HPM_P2
2023/01/12 00:02:25;;;;;;;7.57;3.00;;;;;;;6.07;100.00;100682.94;5034203;28;20542;-76
2023/01/12 00:04:52;;;;;;;9.73;3.73;;;;;;;6.12;100.00;100691.03;5034070;28;20462;-76
2023/01/12 00:07:19;;;;;;;11.70;2.67;;;;;;;6.08;100.00;100698.00;5034157;28;20478;-77
2023/01/12 00:09:45;;;;;;;8.60;3.47;;;;;;;6.12;100.00;100695.59;5034074;28;20459;-76
2023/01/12 00:12:12;;;;;;;10.00;4.23;;;;;;;6.10;100.00;100700.41;5033581;28;20991;-76
2023/01/12 00:14:39;;;;;;;7.27;2.50;;;;;;;6.15;100.00;100705.78;5034015;28;20526;-77
2023/01/12 00:17:07;;;;;;;9.20;2.93;;;;;;;6.14;100.00;100707.69;5033972;28;20562;-77
2023/01/12 00:19:35;;;;;;;9.97;3.60;;;;;;;6.05;100.00;100698.53;5033910;28;20482;-76
2023/01/12 00:22:07;;;;;;;7.70;3.03;;;;;;;6.05;100.00;100688.56;5033589;28;20447;-76
2023/01/12 00:24:36;;;;;;;9.20;3.00;;;;;;;6.01;100.00;100681.31;5033861;28;20509;-76
2023/01/12 00:27:05;;;;;;;12.50;3.20;;;;;;;5.96;100.00;100674.06;5033376;28;20521;-76
2023/01/12 00:29:32;;;;;;;8.10;3.13;;;;;;;6.00;100.00;100675.13;5033891;28;20501;-76
2023/01/12 00:32:00;;;;;;;6.77;2.50;;;;;;;6.02;100.00;100677.53;5037941;28;20977;-77
2023/01/12 00:34:28;;;;;;;11.67;3.60;;;;;;;5.97;100.00;100670.28;5036728;28;20451;-76
2023/01/12 00:36:55;;;;;;;13.83;3.03;;;;;;;5.89;100.00;100672.66;5033425;28;20493;-76
2023/01/12 00:39:22;;;;;;;7.67;2.80;;;;;;;5.92;100.00;100682.94;5033521;28;20428;-76
2023/01/12 00:47:17;;;;;;;10.50;3.87;;;;;;;5.89;100.00;100669.97;5033320;28;20464;-76
2023/01/12 00:49:45;;;;;;;12.23;3.80;;;;;;;5.95;100.00;100664.38;5033467;28;20475;-76
2023/01/12 00:52:15;;;;;;;9.43;3.03;;;;;;;6.02;100.00;100656.03;5033168;28;20486;-76
2023/01/12 00:54:42;;;;;;;14.97;3.40;;;;;;;6.00;100.00;100652.81;5033158;28;20871;-76
2023/01/12 00:57:09;;;;;;;16.97;4.60;;;;;;;5.96;100.00;100654.44;5033307;28;20526;-76
2023/01/12 00:59:36;;;;;;;10.53;3.20;;;;;;;5.99;100.00;100641.28;5033532;28;20853;-76
2023/01/12 01:02:03;;;;;;;15.60;2.50;;;;;;;6.05;100.00;100639.38;5033004;28;20529;-76
2023/01/12 01:04:30;;;;;;;9.10;3.20;;;;;;;6.03;100.00;100645.03;5032925;28;20513;-76
2023/01/12 01:06:58;;;;;;;9.47;2.90;;;;;;;6.06;100.00;100646.34;5032941;28;20878;-76
2023/01/12 01:09:24;;;;;;;7.13;2.90;;;;;;;6.06;100.00;100663.31;5033214;28;20526;-76
2023/01/12 01:11:51;;;;;;;8.70;2.73;;;;;;;6.11;100.00;100657.16;5033297;28;20443;-77
2023/01/12 01:14:18;;;;;;;11.73;4.07;;;;;;;6.10;100.00;100652.81;5033324;28;20439;-77
2023/01/12 01:16:44;;;;;;;9.40;3.17;;;;;;;6.12;100.00;100666.00;5032756;28;20937;-77
2023/01/12 01:19:11;;;;;;;7.83;2.93;;;;;;;6.16;100.00;100664.41;5032877;28;20449;-77
2023/01/12 01:21:38;;;;;;;6.90;1.80;;;;;;;6.18;100.00;100665.72;5033159;28;20513;-77
2023/01/12 01:24:10;;;;;;;8.87;2.43;;;;;;;6.16;100.00;100649.06;5032978;28;20485;-76
2023/01/12 01:26:36;;;;;;;7.20;2.40;;;;;;;6.17;100.00;100652.56;5036896;28;20498;-76
2023/01/12 01:29:03;;;;;;;9.87;2.20;;;;;;;6.21;100.00;100638.31;5036928;28;20552;-76
2023/01/12 01:31:30;;;;;;;8.93;2.13;;;;;;;6.29;100.00;100634.28;5036831;28;20431;-76
2023/01/12 01:33:56;;;;;;;8.13;2.87;;;;;;;6.29;100.00;100629.69;5037094;28;20545;-77
2023/01/12 01:36:23;;;;;;;11.77;2.17;;;;;;;6.32;100.00;100620.25;5036807;28;20509;-76
2023/01/12 01:38:50;;;;;;;11.70;2.20;;;;;;;6.38;100.00;100631.84;5036784;28;20498;-76
2023/01/12 01:41:21;;;;;;;7.57;2.33;;;;;;;6.44;100.00;100628.03;5037047;28;20920;-76
2023/01/12 01:43:54;;;;;;;9.00;2.20;;;;;;;6.48;100.00;100632.59;5036918;28;20452;-76
2023/01/12 01:46:38;;;;;;;6.60;1.83;;;;;;;6.52;100.00;100633.69;5036962;28;20446;-76
2023/01/12 01:49:17;;;;;;;6.80;1.60;;;;;;;6.60;100.00;100613.50;5036724;28;20546;-76
2023/01/12 01:51:45;;;;;;;11.43;2.53;;;;;;;6.71;100.00;100619.63;5036677;28;20514;-76
2023/01/12 01:54:13;;;;;;;6.93;1.63;;;;;;;6.71;100.00;100615.06;5036687;28;20504;-77
2023/01/12 01:56:42;;;;;;;7.83;1.90;;;;;;;6.82;100.00;100615.84;5036683;28;20513;-76
2023/01/12 01:59:14;;;;;;;12.13;2.10;;;;;;;6.78;100.00;100618.28;5036307;28;20592;-76
2023/01/12 02:01:41;;;;;;;8.27;1.73;;;;;;;6.81;100.00;100609.63;5036611;28;20574;-77
2023/01/12 02:04:08;;;;;;;5.07;1.17;;;;;;;6.86;100.00;100594.53;5036255;28;20466;-77
2023/01/12 02:06:35;;;;;;;10.83;1.63;;;;;;;6.91;100.00;100587.25;5036120;28;20978;-76
2023/01/12 02:09:07;;;;;;;4.67;1.13;;;;;;;6.94;100.00;100589.38;5036725;28;20542;-76
2023/01/12 02:17:21;;;;;;;10.30;1.40;;;;;;;7.00;100.00;100585.59;5036096;28;20489;-77
2023/01/12 02:20:09;;;;;;;10.47;1.60;;;;;;;7.01;100.00;100575.63;5035813;28;20917;-77
2023/01/12 02:23:04;;;;;;;4.40;0.80;;;;;;;7.01;100.00;100571.03;5035849;28;20485;-77
2023/01/12 02:25:49;;;;;;;4.93;1.40;;;;;;;6.97;100.00;100579.97;5036118;28;20482;-76
2023/01/12 02:28:37;;;;;;;11.70;2.10;;;;;;;6.95;100.00;100574.84;5035985;28;20471;-76
2023/01/12 02:31:37;;;;;;;9.50;1.13;;;;;;;6.96;100.00;100562.19;5036452;28;20992;-77
2023/01/12 02:34:15;;;;;;;4.97;0.97;;;;;;;6.95;100.00;100561.41;5033578;28;20546;-77
2023/01/12 02:36:53;;;;;;;4.67;1.07;;;;;;;6.86;100.00;100551.47;5034962;28;20852;-77
2023/01/12 02:39:24;;;;;;;5.27;1.27;;;;;;;6.84;100.00;100551.75;5035479;28;20982;-76
2023/01/12 02:44:49;;;;;;;8.73;1.27;;;;;;;6.83;100.00;100548.25;5035511;28;20784;-76
2023/01/12 02:47:23;;;;;;;13.80;1.77;;;;;;;6.83;100.00;100550.94;5035397;28;20516;-77
2023/01/12 02:49:56;;;;;;;6.00;1.00;;;;;;;6.83;100.00;100550.13;5035754;28;20481;-76
2023/01/12 02:52:26;;;;;;;10.17;1.50;;;;;;;6.82;100.00;100551.22;5035357;28;20477;-77
2023/01/12 02:54:55;;;;;;;7.83;1.13;;;;;;;6.79;100.00;100541.00;5035801;28;20522;-76
2023/01/12 02:57:24;;;;;;;4.87;1.13;;;;;;;6.82;100.00;100546.66;5035278;28;20471;-76
2023/01/12 02:59:54;;;;;;;5.40;1.07;;;;;;;6.81;100.00;100538.81;5035280;28;20471;-76
2023/01/12 03:02:26;;;;;;;5.27;1.10;;;;;;;6.79;100.00;100541.81;5035362;28;20538;-77
2023/01/12 03:04:54;;;;;;;6.50;1.50;;;;;;;6.81;100.00;100528.06;5035023;28;20469;-76
2023/01/12 03:07:32;;;;;;;5.67;1.40;;;;;;;6.76;100.00;100536.97;5035151;28;20482;-76
2023/01/12 03:10:07;;;;;;;15.43;1.90;;;;;;;6.79;100.00;100539.13;5035127;28;20432;-76
2023/01/12 03:12:37;;;;;;;5.43;1.30;;;;;;;6.82;100.00;100527.00;5035206;28;20432;-76
2023/01/12 03:15:09;;;;;;;9.20;1.40;;;;;;;6.81;100.00;100523.47;5035058;28;20538;-76
2023/01/12 03:17:41;;;;;;;4.87;1.10;;;;;;;6.80;100.00;100524.56;5034647;28;20493;-76
2023/01/12 03:20:14;;;;;;;7.07;1.27;;;;;;;6.80;100.00;100527.25;5034977;28;20459;-76
2023/01/12 03:22:42;;;;;;;15.63;1.70;;;;;;;6.77;100.00;100538.59;5034934;28;20528;-76
2023/01/12 03:25:13;;;;;;;13.40;1.40;;;;;;;6.84;100.00;100524.81;5034574;28;20537;-76
2023/01/12 03:27:45;;;;;;;4.60;0.90;;;;;;;6.89;100.00;100519.41;5034775;28;20534;-76
2023/01/12 03:30:17;;;;;;;7.80;1.23;;;;;;;6.90;100.00;100517.50;5035041;28;20520;-77
2023/01/12 03:32:45;;;;;;;9.60;1.63;;;;;;;6.89;100.00;100514.03;5034856;28;20507;-77
2023/01/12 03:35:12;;;;;;;7.27;1.00;;;;;;;6.89;100.00;100521.28;5034700;28;20459;-76
2023/01/12 03:37:44;;;;;;;5.07;1.03;;;;;;;6.90;100.00;100521.00;5034461;28;20519;-76
2023/01/12 03:40:17;;;;;;;4.40;1.03;;;;;;;6.90;100.00;100520.22;5034513;28;20478;-76
2023/01/12 03:42:51;;;;;;;8.90;1.37;;;;;;;6.95;100.00;100523.69;5034473;28;20435;-76
2023/01/12 03:45:26;;;;;;;4.63;1.20;;;;;;;6.99;100.00;100526.63;5034569;28;20434;-76
2023/01/12 03:48:00;;;;;;;6.33;0.97;;;;;;;7.02;100.00;100526.06;5033842;28;21023;-76
2023/01/12 03:50:31;;;;;;;10.93;1.60;;;;;;;7.06;100.00;100524.44;5034295;28;20424;-76
2023/01/12 03:53:01;;;;;;;6.13;1.27;;;;;;;7.04;100.00;100526.63;5034066;28;20948;-76
2023/01/12 03:55:30;;;;;;;10.10;1.10;;;;;;;7.05;100.00;100512.84;5034415;28;20447;-76
2023/01/12 03:57:57;;;;;;;11.13;1.40;;;;;;;7.10;100.00;100524.69;5034770;28;20506;-76
2023/01/12 04:00:26;;;;;;;5.10;1.10;;;;;;;7.17;100.00;100520.59;5034711;28;20448;-76
2023/01/12 04:03:04;;;;;;;6.00;1.30;;;;;;;7.19;100.00;100517.63;5033942;28;20485;-76
2023/01/12 04:05:30;;;;;;;8.33;1.33;;;;;;;7.21;100.00;100521.63;5033876;28;21031;-76
2023/01/12 04:07:57;;;;;;;4.97;1.10;;;;;;;7.24;100.00;100515.69;5034197;28;20495;-76
2023/01/12 04:10:23;;;;;;;6.60;1.20;;;;;;;7.31;100.00;100510.00;5034078;28;20525;-76
2023/01/12 04:12:50;;;;;;;4.87;1.07;;;;;;;7.27;100.00;100512.44;5033943;28;20451;-76
2023/01/12 04:15:17;;;;;;;5.43;1.23;;;;;;;7.30;100.00;100497.59;5060329;22;20506;-68
2023/01/12 04:17:43;;;;;;;9.90;1.33;;;;;;;7.36;100.00;100507.25;5053258;28;20438;-68
2023/01/12 04:20:13;;;;;;;10.43;1.10;;;;;;;7.41;100.00;100492.94;5053415;28;20476;-68
2023/01/12 04:22:44;;;;;;;6.60;1.63;;;;;;;7.46;100.00;100490.19;5053316;28;20505;-68
2023/01/12 04:25:11;;;;;;;5.00;1.10;;;;;;;7.48;100.00;100491.53;5053321;28;20514;-68
2023/01/12 04:27:41;;;;;;;7.03;0.80;;;;;;;7.52;100.00;100489.06;5053077;28;20817;-68
2023/01/12 04:30:09;;;;;;;5.13;1.10;;;;;;;7.56;100.00;100488.22;5052980;28;20997;-68
2023/01/12 04:32:36;;;;;;;4.53;0.87;;;;;;;7.56;100.00;100490.91;5053025;28;20439;-68
2023/01/12 04:35:03;;;;;;;5.87;1.00;;;;;;;7.56;100.00;100484.72;5053279;28;20478;-68
2023/01/12 04:37:33;;;;;;;4.90;0.90;;;;;;;7.57;100.00;100486.34;5052961;28;20438;-68
2023/01/12 04:40:00;;;;;;;12.93;1.47;;;;;;;7.59;100.00;100484.16;5053138;28;20469;-68
2023/01/12 04:45:11;;;;;;;5.60;0.87;;;;;;;7.61;100.00;100490.06;5052956;28;20410;-68
2023/01/12 04:47:38;;;;;;;6.77;1.03;;;;;;;7.60;100.00;100483.06;5053156;28;20442;-68
2023/01/12 04:50:05;;;;;;;15.53;1.33;;;;;;;7.63;100.00;100479.00;5053089;28;20493;-68
2023/01/12 04:52:34;;;;;;;4.63;1.00;;;;;;;7.67;100.00;100477.34;5053118;28;20466;-68
2023/01/12 04:55:01;;;;;;;4.00;0.50;;;;;;;7.67;100.00;100472.75;5052719;28;20820;-68
2023/01/12 04:57:27;;;;;;;4.20;0.70;;;;;;;7.74;100.00;100470.53;5053089;28;20825;-68
2023/01/12 04:59:54;;;;;;;8.20;1.13;;;;;;;7.70;99.64;100463.28;5054027;28;20462;-68
2023/01/12 05:02:20;;;;;;;4.80;1.03;;;;;;;7.75;98.81;100464.06;5057103;28;20481;-68
2023/01/12 05:04:48;;;;;;;7.27;1.23;;;;;;;7.79;99.13;100457.00;5057166;28;20442;-68
2023/01/12 05:07:15;;;;;;;5.33;1.20;;;;;;;7.83;99.49;100460.75;5057130;28;20442;-68
2023/01/12 05:12:26;;;;;;;5.30;0.83;;;;;;;7.82;98.22;100456.41;5081182;22;20496;-67
2023/01/12 05:14:53;;;;;;;5.50;1.03;;;;;;;7.82;98.49;100456.41;5057234;28;20456;-67
2023/01/12 05:17:20;;;;;;;7.03;0.97;;;;;;;7.84;99.41;100453.47;5057048;28;20791;-69
2023/01/12 05:19:48;;;;;;;6.00;0.90;;;;;;;7.86;99.25;100456.66;5056683;28;20448;-70
2023/01/12 05:22:14;;;;;;;4.00;0.63;;;;;;;7.89;99.05;100449.91;5056901;28;20832;-70
2023/01/12 05:24:42;;;;;;;4.50;0.97;;;;;;;7.91;98.66;100450.41;5056593;28;20947;-70
2023/01/12 05:27:09;;;;;;;5.10;1.10;;;;;;;7.96;97.86;100451.16;5057005;28;20816;-70
2023/01/12 05:29:36;;;;;;;5.50;0.73;;;;;;;7.95;96.91;100449.53;5056934;28;20481;-70
2023/01/12 05:32:02;;;;;;;14.63;1.40;;;;;;;7.99;96.59;100449.78;5056401;28;20549;-69
2023/01/12 05:34:29;;;;;;;6.23;0.90;;;;;;;8.06;96.08;100445.66;5056622;28;20525;-70
2023/01/12 05:36:55;;;;;;;9.17;1.20;;;;;;;8.04;96.72;100449.72;5056707;28;20446;-70
2023/01/12 05:39:22;;;;;;;6.03;1.20;;;;;;;8.03;96.62;100450.81;5056586;28;20895;-70
2023/01/12 05:44:34;;;;;;;5.70;0.80;;;;;;;8.08;96.14;100439.97;5056358;28;20441;-70
2023/01/12 05:47:01;;;;;;;4.77;0.73;;;;;;;8.13;96.68;100448.00;5056499;28;20446;-70
2023/01/12 05:49:27;;;;;;;11.27;1.03;;;;;;;8.07;96.13;100444.56;5056308;28;20481;-66
2023/01/12 05:51:54;;;;;;;5.37;0.93;;;;;;;8.11;96.33;100442.09;5056164;28;20462;-68
2023/01/12 05:54:20;;;;;;;6.43;1.17;;;;;;;8.14;95.96;100452.28;5055950;28;20533;-66
2023/01/12 05:56:47;;;;;;;5.77;1.10;;;;;;;8.18;95.76;100447.13;5055941;28;20444;-65
2023/01/12 05:59:15;;;;;;;4.67;1.10;;;;;;;8.19;95.39;100459.53;5055989;28;20527;-69
2023/01/12 06:01:41;;;;;;;4.40;0.90;;;;;;;8.25;95.44;100448.41;5055563;28;20504;-66
2023/01/12 06:04:08;;;;;;;5.10;1.13;;;;;;;8.20;96.60;100453.84;5055796;28;20442;-67
2023/01/12 06:06:34;;;;;;;13.50;1.33;;;;;;;8.19;96.22;100441.47;5055994;28;20442;-66
2023/01/12 06:09:02;;;;;;;9.40;1.30;;;;;;;8.23;95.75;100447.88;5055890;28;20438;-65
2023/01/12 06:14:13;;;;;;;5.37;0.97;;;;;;;8.19;95.56;100440.63;5055591;28;20405;-66
2023/01/12 06:16:42;;;;;;;5.03;1.10;;;;;;;8.21;96.32;100441.16;5055862;28;20478;-66
2023/01/12 06:19:10;;;;;;;6.10;1.20;;;;;;;8.19;96.90;100444.16;5055606;28;20454;-66
2023/01/12 06:21:37;;;;;;;4.20;0.80;;;;;;;8.19;96.03;100444.16;5055522;28;20560;-67
2023/01/12 06:24:04;;;;;;;4.77;0.83;;;;;;;8.28;95.08;100437.03;5055664;28;20461;-66
2023/01/12 06:26:31;;;;;;;8.60;1.90;;;;;;;8.23;95.09;100439.78;5055644;28;20447;-67
2023/01/12 06:28:58;;;;;;;8.23;1.33;;;;;;;8.21;95.01;100436.56;5055549;28;20452;-66
2023/01/12 06:31:24;;;;;;;6.37;0.97;;;;;;;8.20;95.61;100428.78;5055762;28;20538;-65
2023/01/12 06:33:52;;;;;;;5.60;1.10;;;;;;;8.22;95.23;100427.38;5055115;28;20470;-66
2023/01/12 06:36:19;;;;;;;6.67;1.23;;;;;;;8.22;95.45;100421.19;5055392;28;20544;-65
2023/01/12 06:38:45;;;;;;;6.50;1.07;;;;;;;8.14;95.39;100430.72;5055382;28;20446;-66
2023/01/12 06:42:27;;;;;;;4.20;0.63;;;;;;;8.22;95.14;100416.59;5054848;28;20458;-65
2023/01/12 06:44:03;;;;;;;6.73;1.00;;;;;;;8.23;95.42;100420.88;5054825;28;20450;-65
2023/01/12 06:46:30;;;;;;;6.00;0.87;;;;;;;8.27;96.32;100423.81;5055037;28;20446;-65
2023/01/12 06:48:58;;;;;;;7.33;1.10;;;;;;;8.26;95.40;100417.63;5054936;28;20442;-65
2023/01/12 06:51:26;;;;;;;9.73;1.47;;;;;;;8.27;95.80;100421.91;5055051;28;20454;-65
2023/01/12 06:53:52;;;;;;;4.80;1.30;;;;;;;8.26;96.18;100423.00;5055131;28;20569;-65
2023/01/12 06:56:19;;;;;;;6.33;0.93;;;;;;;8.28;95.17;100415.44;5055130;28;20442;-65
2023/01/12 06:58:45;;;;;;;4.50;0.90;;;;;;;8.28;96.19;100410.06;5055063;28;20469;-65
2023/01/12 07:01:12;;;;;;;12.00;1.50;;;;;;;8.25;95.34;100407.13;5054919;28;20563;-66
2023/01/12 07:03:39;;;;;;;4.33;1.07;;;;;;;8.28;96.77;100410.06;5054631;28;21000;-69
2023/01/12 07:06:07;;;;;;;7.47;1.50;;;;;;;8.26;96.12;100403.31;5054874;28;20434;-67
2023/01/12 07:08:34;;;;;;;5.80;1.20;;;;;;;8.27;96.08;100403.03;5054830;28;20450;-68
2023/01/12 07:11:02;;;;;;;7.43;1.03;;;;;;;8.31;95.24;100409.44;5054242;28;20454;-68
2023/01/12 07:13:29;;;;;;;5.13;1.00;;;;;;;8.29;95.18;100406.25;5053750;28;20442;-69
2023/01/12 07:15:58;;;;;;;7.23;1.50;;;;;;;8.26;94.86;100406.81;5053524;28;20438;-69
2023/01/12 07:18:24;;;;;;;5.03;1.27;;;;;;;8.27;96.39;100397.63;5053308;28;20430;-68
2023/01/12 07:20:51;;;;;;;8.83;1.67;;;;;;;8.28;96.25;100393.88;5053586;28;20442;-68
2023/01/12 07:23:19;;;;;;;4.77;0.73;;;;;;;8.30;95.18;100391.66;5052444;28;20802;-68
2023/01/12 07:25:46;;;;;;;6.33;1.00;;;;;;;8.30;95.17;100385.47;5053708;28;20521;-67
2023/01/12 07:28:12;;;;;;;4.23;0.77;;;;;;;8.36;96.11;100387.00;5053473;28;20446;-67
2023/01/12 07:30:39;;;;;;;12.70;1.43;;;;;;;8.41;95.63;100386.16;5053825;28;20446;-67
2023/01/12 07:33:07;;;;;;;5.60;1.17;;;;;;;8.38;95.86;100375.94;5053096;28;20465;-67
2023/01/12 07:35:34;;;;;;;10.23;1.00;;;;;;;8.37;95.23;100367.06;5053343;28;20798;-67
2023/01/12 07:38:00;;;;;;;9.07;0.80;;;;;;;8.38;96.08;100365.16;5053015;28;20867;-68
2023/01/12 07:40:28;;;;;;;6.27;1.57;;;;;;;8.38;96.40;100362.47;5053392;28;20442;-67
2023/01/12 07:42:59;;;;;;;10.03;1.40;;;;;;;8.42;96.19;100358.88;5053055;28;20492;-67
2023/01/12 07:45:25;;;;;;;4.70;0.90;;;;;;;8.43;95.93;100359.69;5053177;28;20496;-67
2023/01/12 07:47:53;;;;;;;4.77;0.90;;;;;;;8.46;96.02;100356.41;5052659;28;20477;-67
2023/01/12 07:50:19;;;;;;;8.20;1.33;;;;;;;8.47;96.75;100355.31;5052703;28;20940;-67
2023/01/12 07:52:46;;;;;;;5.33;0.90;;;;;;;8.43;95.47;100351.59;5052634;28;21058;-66
2023/01/12 07:55:12;;;;;;;8.80;1.63;;;;;;;8.47;95.53;100350.72;5052528;28;21034;-67
2023/01/12 07:57:40;;;;;;;4.80;1.10;;;;;;;8.55;95.61;100350.06;5052911;28;20450;-67
2023/01/12 08:00:08;;;;;;;5.63;1.33;;;;;;;8.62;94.90;100354.28;5052396;28;20442;-67
2023/01/12 08:02:35;;;;;;;4.10;0.70;;;;;;;8.65;94.76;100349.09;5052596;28;20490;-66
2023/01/12 08:05:01;;;;;;;5.90;1.30;;;;;;;8.68;94.73;100342.31;5052582;28;20453;-67
2023/01/12 08:07:31;;;;;;;8.73;1.20;;;;;;;8.69;94.54;100336.59;5052429;28;20448;-66
2023/01/12 08:09:57;;;;;;;10.10;1.23;;;;;;;8.78;93.98;100342.13;5052493;28;20466;-65
2023/01/12 08:12:24;;;;;;;4.20;0.83;;;;;;;8.84;93.71;100341.75;5012732;28;1150696;-67
2023/01/12 08:14:52;;;;;;;6.73;0.80;;;;;;;8.89;94.08;100342.75;5053614;28;20253;-66
2023/01/12 08:17:22;;;;;;;4.33;0.80;;;;;;;8.89;93.31;100337.38;5053583;28;20468;-65
2023/01/12 08:19:55;;;;;;;9.50;1.17;;;;;;;8.88;93.72;100338.47;5053225;28;20446;-66
2023/01/12 08:22:27;;;;;;;5.83;0.80;;;;;;;8.91;94.33;100337.88;5053258;28;20492;-66
2023/01/12 08:24:58;;;;;;;5.60;1.20;;;;;;;8.94;93.34;100335.41;5053405;28;20485;-66
2023/01/12 08:27:27;;;;;;;5.63;1.27;;;;;;;8.98;92.91;100336.38;5053489;28;20426;-65
2023/01/12 08:29:57;;;;;;;5.67;1.17;;;;;;;8.98;92.68;100327.47;5053405;28;20474;-65
2023/01/12 08:32:25;;;;;;;5.70;0.97;;;;;;;9.04;92.12;100323.63;5052922;28;20986;-65
2023/01/12 08:34:54;;;;;;;4.47;0.90;;;;;;;9.05;92.06;100315.19;5053076;28;20958;-66
2023/01/12 08:37:24;;;;;;;4.57;0.97;;;;;;;9.09;92.25;100315.41;5053281;28;20445;-66
2023/01/12 08:39:52;;;;;;;4.47;0.97;;;;;;;9.05;93.00;100306.28;5053122;28;20492;-65
2023/01/12 08:42:19;;;;;;;5.10;1.00;;;;;;;9.04;93.81;100312.81;5053066;28;20500;-66
2023/01/12 08:44:45;;;;;;;5.77;1.20;;;;;;;9.08;93.47;100314.63;5052856;28;20540;-67
2023/01/12 08:47:18;;;;;;;4.77;0.93;;;;;;;9.06;93.34;100313.28;5053204;28;20437;-67
2023/01/12 08:49:46;;;;;;;4.00;0.63;;;;;;;9.04;92.31;100304.69;5053135;28;20818;-65
2023/01/12 08:52:13;;;;;;;6.20;1.20;;;;;;;9.10;92.30;100311.59;5053077;28;20458;-67
2023/01/12 08:54:39;;;;;;;5.70;1.00;;;;;;;9.13;92.71;100297.50;5052737;28;20473;-68
2023/01/12 08:57:06;;;;;;;6.27;1.17;;;;;;;9.12;93.88;100304.03;5053098;28;20534;-67
2023/01/12 08:59:33;;;;;;;9.43;0.97;;;;;;;9.19;92.30;100298.22;5053099;28;20452;-69
2023/01/12 09:01:59;;;;;;;5.07;0.97;;;;;;;9.20;91.50;100287.09;5052490;28;21019;-67
2023/01/12 09:04:28;;;;;;;4.93;0.90;;;;;;;9.23;91.92;100288.41;5052941;28;20525;-70
2023/01/12 09:06:55;;;;;;;4.30;0.77;;;;;;;9.24;93.17;100281.91;5052910;28;20479;-68
2023/01/12 09:09:21;;;;;;;9.57;1.00;;;;;;;9.26;91.65;100288.63;5052619;28;20525;-68
2023/01/12 09:11:49;;;;;;;4.20;0.77;;;;;;;9.26;91.89;100285.13;5052505;28;20478;-68
2023/01/12 09:14:17;;;;;;;6.50;1.00;;;;;;;9.32;91.38;100275.78;5052864;28;20470;-67
2023/01/12 09:16:43;;;;;;;5.30;0.70;;;;;;;9.31;92.63;100266.88;5052827;28;20469;-67
2023/01/12 09:19:10;;;;;;;5.30;1.20;;;;;;;9.31;92.38;100277.69;5052691;28;20485;-66
2023/01/12 09:21:39;;;;;;;6.83;0.80;;;;;;;9.31;91.80;100264.19;5052679;28;20465;-68
2023/01/12 09:24:07;;;;;;;5.07;1.17;;;;;;;9.31;91.96;100258.78;5052409;28;20482;-67
2023/01/12 09:26:38;;;;;;;6.13;0.67;;;;;;;9.33;91.01;100259.28;5052490;28;20472;-67
2023/01/12 09:29:05;;;;;;;4.43;0.73;;;;;;;9.38;91.01;100263.78;5052727;28;20525;-69
2023/01/12 09:31:32;;;;;;;4.30;0.80;;;;;;;9.39;90.71;100264.59;5052667;28;20462;-66
2023/01/12 09:33:59;;;;;;;9.07;1.27;;;;;;;9.44;90.86;100267.19;5052829;28;20529;-67
2023/01/12 09:36:27;;;;;;;6.07;1.00;;;;;;;9.44;90.63;100259.09;5052323;28;20442;-67
2023/01/12 09:38:56;;;;;;;4.13;0.70;;;;;;;9.40;90.14;100258.88;5052872;28;20652;-67
2023/01/12 09:47:10;;;;;;;4.57;0.97;;;;;;;9.53;90.04;100233.75;5054896;28;20449;-67
2023/01/12 09:49:42;;;;;;;4.17;0.73;;;;;;;9.61;88.71;100232.25;5056453;28;20430;-65
2023/01/12 09:52:15;;;;;;;4.70;1.00;;;;;;;9.72;88.97;100228.19;5056114;28;20897;-67
2023/01/12 09:54:47;;;;;;;6.93;1.17;;;;;;;9.81;88.71;100220.16;5056140;28;20521;-68
2023/01/12 09:57:39;;;;;;;5.53;0.87;;;;;;;9.89;87.29;100221.34;5056041;28;20920;-67
2023/01/12 10:00:09;;;;;;;6.37;1.50;;;;;;;9.99;87.22;100229.22;5053509;28;20956;-67
2023/01/12 10:02:38;;;;;;;8.00;1.00;;;;;;;9.96;87.42;100213.59;5055931;28;20583;-65
2023/01/12 10:05:15;;;;;;;8.13;1.27;;;;;;;9.92;88.96;100208.03;5055990;28;20448;-65
2023/01/12 10:07:41;;;;;;;4.77;0.83;;;;;;;9.96;87.64;100219.00;5055958;28;20438;-66
2023/01/12 10:10:14;;;;;;;4.77;0.70;;;;;;;10.03;86.75;100211.28;5055723;28;20469;-67
2023/01/12 10:12:49;;;;;;;4.30;0.90;;;;;;;10.07;85.97;100210.34;5055588;28;20470;-66
2023/01/12 10:15:31;;;;;;;4.10;0.70;;;;;;;10.10;86.57;100204.34;5055461;28;20903;-66
2023/01/12 10:18:04;;;;;;;5.40;0.80;;;;;;;10.16;86.16;100199.59;5055541;28;20430;-65
2023/01/12 10:20:36;;;;;;;10.80;1.40;;;;;;;10.13;86.56;100205.63;5055770;28;20513;-65
2023/01/12 10:23:11;;;;;;;6.17;0.67;;;;;;;10.23;85.43;100213.50;5055279;28;20936;-66
2023/01/12 10:25:42;;;;;;;4.17;0.70;;;;;;;10.23;85.25;100208.09;5055036;28;20432;-66
2023/01/12 10:28:15;;;;;;;6.03;0.90;;;;;;;10.20;85.03;100203.28;5055237;28;20517;-66
2023/01/12 10:30:42;;;;;;;4.10;0.90;;;;;;;10.31;85.38;100201.16;5055452;28;20437;-66
2023/01/12 10:33:11;;;;;;;4.43;0.67;;;;;;;10.19;84.89;100201.69;5055218;28;20508;-66
2023/01/12 10:35:50;;;;;;;4.67;0.97;;;;;;;10.28;84.77;100188.25;5055170;28;20533;-65
2023/01/12 10:38:28;;;;;;;4.97;0.90;;;;;;;10.22;86.03;100195.66;5054846;28;20915;-66
2023/01/12 10:41:12;;;;;;;5.00;1.03;;;;;;;10.23;86.12;100191.84;5054669;28;20851;-65
2023/01/12 10:43:40;;;;;;;6.40;1.30;;;;;;;10.21;86.76;100188.66;5054789;28;20970;-66
2023/01/12 10:46:13;;;;;;;4.83;0.70;;;;;;;10.04;89.22;100177.69;5055066;28;20438;-65
2023/01/12 10:48:42;;;;;;;4.10;0.90;;;;;;;9.93;89.39;100174.44;5054651;28;20422;-67
2023/01/12 10:51:20;;;;;;;4.57;0.90;;;;;;;9.78;92.85;100164.78;5054805;28;20466;-65
2023/01/12 10:53:50;;;;;;;4.50;0.80;;;;;;;9.64;95.56;100161.31;5054908;28;20423;-65
2023/01/12 10:56:26;;;;;;;5.53;0.87;;;;;;;9.43;97.28;100155.56;5054638;28;20530;-64
2023/01/12 10:58:56;;;;;;;4.00;0.70;;;;;;;9.27;99.93;100159.69;5053729;28;20473;-66
2023/01/12 11:01:23;;;;;;;5.07;0.87;;;;;;;9.15;100.00;100154.00;5054691;28;20537;-63
2023/01/12 11:03:50;;;;;;;4.90;0.90;;;;;;;9.06;100.00;100132.28;5054576;28;20569;-66
2023/01/12 11:06:25;;;;;;;4.07;0.63;;;;;;;8.96;100.00;100129.81;5054317;28;20991;-64
2023/01/12 11:08:53;;;;;;;5.70;1.27;;;;;;;8.88;100.00;100120.50;5054656;28;20430;-66
2023/01/12 11:11:29;;;;;;;4.60;0.80;;;;;;;8.84;100.00;100125.69;5054346;28;20529;-65
2023/01/12 11:13:57;;;;;;;6.50;0.70;;;;;;;8.87;100.00;100099.19;5054297;28;20419;-66
2023/01/12 11:16:26;;;;;;;13.53;0.97;;;;;;;8.86;100.00;100100.31;5062703;22;20918;-69
2023/01/12 11:19:05;;;;;;;4.20;0.77;;;;;;;8.81;100.00;100090.41;5034731;28;20525;-69
2023/01/12 11:21:36;;;;;;;4.20;0.60;;;;;;;8.83;100.00;100099.00;5034378;28;20919;-69
2023/01/12 11:24:09;;;;;;;6.30;0.87;;;;;;;8.85;100.00;100110.28;5034580;28;20474;-69
2023/01/12 11:26:44;;;;;;;4.80;1.03;;;;;;;8.81;100.00;100104.72;5034577;28;20554;-69
2023/01/12 11:29:34;;;;;;;4.40;0.80;;;;;;;8.80;100.00;100100.38;5034558;28;20423;-72
2023/01/12 11:32:06;;;;;;;7.23;1.30;;;;;;;8.78;100.00;100105.31;5034198;28;20428;-69
2023/01/12 11:34:38;;;;;;;6.93;1.00;;;;;;;8.74;100.00;100092.69;5034410;28;20506;-69
2023/01/12 11:37:11;;;;;;;6.97;1.07;;;;;;;8.74;100.00;100096.19;5034129;28;20931;-69
2023/01/12 11:39:40;;;;;;;4.80;0.90;;;;;;;8.82;100.00;100094.72;5034068;28;20921;-68
2023/01/12 11:45:06;;;;;;;4.77;0.70;;;;;;;8.91;100.00;100092.09;5034059;28;20447;-68
2023/01/12 11:47:37;;;;;;;6.43;0.90;;;;;;;9.01;100.00;100079.16;5034380;28;20451;-68
2023/01/12 11:50:11;;;;;;;5.17;0.70;;;;;;;9.02;100.00;100088.88;5033898;28;20427;-68
2023/01/12 11:52:38;;;;;;;5.80;1.10;;;;;;;9.07;100.00;100085.25;5034087;28;20438;-68
2023/01/12 11:55:05;;;;;;;7.00;1.27;;;;;;;9.14;100.00;100082.94;5033912;28;20463;-68
2023/01/12 11:57:45;;;;;;;7.90;1.20;;;;;;;9.26;100.00;100077.03;5034029;28;20439;-68
2023/01/12 12:00:25;;;;;;;5.70;0.83;;;;;;;9.25;100.00;100073.53;5033673;28;20422;-68
2023/01/12 12:03:06;;;;;;;8.67;1.80;;;;;;;9.28;100.00;100064.00;5033884;28;20423;-68
2023/01/12 12:05:44;;;;;;;4.30;0.70;;;;;;;9.39;100.00;100078.88;5033800;28;20876;-68
2023/01/12 12:08:24;;;;;;;11.03;0.97;;;;;;;9.43;100.00;100071.78;5033429;28;20942;-68
2023/01/12 12:10:57;;;;;;;5.93;0.90;;;;;;;9.47;100.00;100067.31;5033864;28;20803;-68
2023/01/12 12:13:34;;;;;;;4.70;0.93;;;;;;;9.48;100.00;100068.16;5033619;28;20463;-68